Time;durP1;ratioP1;P1;durP2;ratioP2;P2;SDS_P1;SDS_P2;PMS_P1;PMS_P2;Temp;Humidity;BMP_temperature;BMP_pressure;BME280_temperature;BME280_humidity;BME280_pressure;Samples;Min_cycle;Max_cycle;Signal;HPM_P1;HPM_P2
2022/07/29 00:02:18;;;;;;;3.05;0.60;;;15.80;99.90;;;;;;4996406;28;20044;-74
2022/07/29 00:04:43;;;;;;;0.65;0.50;;;15.80;99.90;;;;;;4994485;28;20046;-74
2022/07/29 00:07:09;;;;;;;1.58;0.60;;;15.90;99.90;;;;;;4979283;28;20160;-73
2022/07/29 00:09:35;;;;;;;2.33;0.70;;;15.80;99.90;;;;;;4994813;28;20085;-73
2022/07/29 00:12:01;;;;;;;1.30;0.57;;;15.90;99.90;;;;;;4996727;28;20065;-73
2022/07/29 00:14:27;;;;;;;1.75;0.60;;;15.80;99.90;;;;;;4994970;28;20113;-73
2022/07/29 00:16:53;;;;;;;2.15;0.63;;;15.80;99.90;;;;;;4995361;28;20093;-74
2022/07/29 00:19:18;;;;;;;0.80;0.57;;;15.80;99.90;;;;;;4995019;28;20447;-74
2022/07/29 00:21:44;;;;;;;1.50;0.73;;;15.80;99.90;;;;;;4995742;28;20087;-74
2022/07/29 00:24:10;;;;;;;1.90;0.60;;;15.80;99.90;;;;;;4995798;28;20089;-73
2022/07/29 00:26:35;;;;;;;3.00;0.60;;;15.80;99.90;;;;;;4979300;28;20451;-74
2022/07/29 00:29:03;;;;;;;2.05;0.70;;;15.80;99.90;;;;;;4978680;28;20052;-73
2022/07/29 00:31:30;;;;;;;1.00;0.60;;;15.80;99.90;;;;;;4978672;28;20053;-73
2022/07/29 00:33:56;;;;;;;0.70;0.57;;;15.80;99.90;;;;;;4995712;28;20054;-74
2022/07/29 00:36:22;;;;;;;1.38;0.82;;;15.70;99.90;;;;;;4995656;28;20054;-73
2022/07/29 00:38:49;;;;;;;1.42;0.52;;;15.70;99.90;;;;;;4994859;28;20050;-74
2022/07/29 00:41:15;;;;;;;1.08;0.60;;;15.70;99.90;;;;;;4994688;28;20394;-74
2022/07/29 00:43:41;;;;;;;3.30;0.80;;;15.70;99.90;;;;;;4994262;28;20407;-73
2022/07/29 00:46:07;;;;;;;3.42;0.63;;;15.70;99.90;;;;;;4995455;28;20188;-73
2022/07/29 00:48:33;;;;;;;4.40;0.80;;;15.70;99.90;;;;;;4978998;28;20129;-74
2022/07/29 00:51:01;;;;;;;2.45;0.60;;;15.70;99.90;;;;;;4994133;28;20046;-73
2022/07/29 00:53:27;;;;;;;1.27;0.60;;;15.70;99.90;;;;;;4995181;28;20073;-73
2022/07/29 00:55:57;;;;;;;1.95;0.57;;;15.70;99.90;;;;;;4994255;28;20043;-73
2022/07/29 00:58:24;;;;;;;1.42;0.60;;;15.70;99.90;;;;;;4994214;28;20046;-73
2022/07/29 01:00:50;;;;;;;0.70;0.52;;;15.70;99.90;;;;;;4979003;28;20422;-72
2022/07/29 01:03:16;;;;;;;1.50;0.73;;;15.70;99.90;;;;;;4994394;28;20050;-73
2022/07/29 01:05:44;;;;;;;1.65;0.55;;;15.70;99.90;;;;;;4994822;28;20046;-73
2022/07/29 01:08:12;;;;;;;1.58;0.50;;;15.70;99.90;;;;;;4993975;28;20054;-74
2022/07/29 01:10:39;;;;;;;1.55;0.60;;;15.70;99.90;;;;;;4995043;28;20049;-74
2022/07/29 01:13:05;;;;;;;1.88;0.50;;;15.70;99.90;;;;;;4994732;28;20043;-73
2022/07/29 01:15:32;;;;;;;0.90;0.50;;;15.70;99.90;;;;;;4996060;28;20046;-74
2022/07/29 01:18:11;;;;;;;1.35;0.68;;;15.70;99.90;;;;;;4995346;28;20483;-74
2022/07/29 01:21:07;;;;;;;1.13;0.60;;;15.70;99.90;;;;;;4995629;28;20050;-74
2022/07/29 01:23:51;;;;;;;1.45;0.70;;;15.70;99.90;;;;;;4994781;28;20047;-74
2022/07/29 01:26:31;;;;;;;2.60;0.60;;;15.70;99.90;;;;;;4993729;28;20410;-73
2022/07/29 01:29:24;;;;;;;1.30;0.57;;;15.70;99.90;;;;;;4994648;28;20054;-73
2022/07/29 01:32:05;;;;;;;1.67;0.57;;;15.70;99.90;;;;;;4994108;28;20474;-73
2022/07/29 01:35:00;;;;;;;1.95;0.50;;;15.70;99.90;;;;;;4994594;28;20050;-73
2022/07/29 01:37:38;;;;;;;2.63;0.50;;;15.70;99.90;;;;;;4993863;28;20050;-72
2022/07/29 01:40:07;;;;;;;0.98;0.52;;;15.70;99.90;;;;;;4993223;28;20570;-73
2022/07/29 01:42:42;;;;;;;0.88;0.52;;;15.70;99.90;;;;;;4994416;28;20042;-73
2022/07/29 01:45:22;;;;;;;1.73;0.50;;;15.70;99.90;;;;;;4977543;28;20100;-73
2022/07/29 01:48:16;;;;;;;2.10;0.60;;;15.70;99.90;;;;;;4993708;28;20177;-73
2022/07/29 01:50:51;;;;;;;1.33;0.50;;;15.70;99.90;;;;;;4977233;28;20565;-74
2022/07/29 01:53:31;;;;;;;1.95;0.60;;;15.70;99.90;;;;;;4994244;28;20057;-73
2022/07/29 01:55:59;;;;;;;1.88;0.50;;;15.70;99.90;;;;;;4994579;28;20081;-73
2022/07/29 01:58:28;;;;;;;1.77;0.47;;;15.70;99.90;;;;;;4994228;28;20050;-74
2022/07/29 02:00:56;;;;;;;1.52;0.50;;;15.60;99.90;;;;;;4994122;28;20451;-73
2022/07/29 02:03:23;;;;;;;2.05;0.60;;;15.70;99.90;;;;;;4977159;28;20406;-73
2022/07/29 02:05:50;;;;;;;1.65;0.45;;;15.70;99.90;;;;;;4994327;28;20458;-74
2022/07/29 02:08:18;;;;;;;1.25;0.70;;;15.70;99.90;;;;;;4993450;28;20050;-74
2022/07/29 02:10:45;;;;;;;1.52;0.60;;;15.70;99.90;;;;;;4993245;28;20050;-74
2022/07/29 02:13:13;;;;;;;1.63;0.60;;;15.70;99.90;;;;;;4993685;28;20570;-74
2022/07/29 02:15:41;;;;;;;2.47;0.50;;;15.70;99.90;;;;;;4994173;28;20053;-74
2022/07/29 02:18:12;;;;;;;2.17;0.52;;;15.70;99.90;;;;;;4994119;28;20186;-74
2022/07/29 02:20:41;;;;;;;2.63;0.60;;;15.70;99.90;;;;;;4994705;28;20046;-74
2022/07/29 02:23:10;;;;;;;2.75;0.60;;;15.70;99.90;;;;;;4994086;28;20112;-73
2022/07/29 02:25:37;;;;;;;2.22;0.60;;;15.70;99.90;;;;;;4994066;28;20042;-73
2022/07/29 02:28:03;;;;;;;0.77;0.50;;;15.70;99.90;;;;;;4996109;28;20410;-73
2022/07/29 02:30:31;;;;;;;1.05;0.60;;;15.60;99.90;;;;;;4997948;28;20050;-73
2022/07/29 02:32:57;;;;;;;0.80;0.70;;;15.60;99.90;;;;;;4997391;28;20042;-74
2022/07/29 02:35:24;;;;;;;2.15;0.68;;;15.60;99.90;;;;;;4997927;28;20057;-74
2022/07/29 02:40:43;;;;;;;1.63;0.50;;;15.60;99.90;;;;;;4944592;28;20081;-73
2022/07/29 02:43:10;;;;;;;2.08;0.52;;;15.60;99.90;;;;;;4980695;28;20050;-74
2022/07/29 02:45:36;;;;;;;1.95;0.60;;;15.60;99.90;;;;;;4997877;28;20046;-74
2022/07/29 02:48:10;;;;;;;3.00;0.77;;;15.60;99.90;;;;;;4997762;28;20050;-74
2022/07/29 02:50:42;;;;;;;2.95;0.60;;;15.60;99.90;;;;;;4996824;28;20050;-74
2022/07/29 02:53:16;;;;;;;2.92;0.70;;;15.50;99.90;;;;;;4998227;28;20046;-75
2022/07/29 02:56:01;;;;;;;1.70;0.57;;;15.60;99.90;;;;;;4996741;28;20088;-72
2022/07/29 02:59:01;;;;;;;1.20;0.60;;;15.60;99.90;;;;;;4997592;28;20058;-74
2022/07/29 03:01:32;;;;;;;1.88;0.68;;;15.50;99.90;;;;;;4954539;28;20066;-74
2022/07/29 03:04:02;;;;;;;2.90;0.50;;;15.50;99.90;;;;;;4996251;28;20046;-73
2022/07/29 03:06:30;;;;;;;0.95;0.60;;;15.50;99.90;;;;;;4979834;28;20058;-74
2022/07/29 03:08:57;;;;;;;2.50;0.77;;;15.50;99.90;;;;;;4997217;28;20069;-74
2022/07/29 03:11:24;;;;;;;1.10;0.60;;;15.50;99.90;;;;;;4979952;28;20054;-74
2022/07/29 03:13:50;;;;;;;2.28;0.70;;;15.50;99.90;;;;;;4996156;28;20054;-74
2022/07/29 03:16:18;;;;;;;1.50;0.73;;;15.50;99.90;;;;;;4997195;28;20161;-74
2022/07/29 03:18:43;;;;;;;1.48;0.60;;;15.50;99.90;;;;;;4997105;28;20049;-75
2022/07/29 03:21:09;;;;;;;2.78;0.77;;;15.50;99.90;;;;;;4996996;28;20487;-74
2022/07/29 03:23:35;;;;;;;1.25;0.75;;;15.40;99.90;;;;;;4997232;28;20105;-75
2022/07/29 03:26:01;;;;;;;1.90;0.60;;;15.50;99.90;;;;;;4995890;28;20474;-75
2022/07/29 03:28:27;;;;;;;1.65;0.75;;;15.40;99.90;;;;;;4979515;28;20471;-75
2022/07/29 03:30:53;;;;;;;1.63;0.60;;;15.50;99.90;;;;;;4996730;28;20100;-74
2022/07/29 03:33:19;;;;;;;2.20;0.70;;;15.50;99.90;;;;;;4979182;28;20042;-75
2022/07/29 03:35:45;;;;;;;1.92;0.70;;;15.40;99.90;;;;;;4995631;28;20104;-74
2022/07/29 03:38:11;;;;;;;4.18;0.70;;;15.50;99.90;;;;;;4995005;28;20046;-75
2022/07/29 03:40:48;;;;;;;1.48;0.70;;;15.40;99.90;;;;;;4996187;28;20050;-73
2022/07/29 03:43:16;;;;;;;1.80;0.70;;;15.50;99.90;;;;;;4995723;28;20045;-74
2022/07/29 03:45:49;;;;;;;2.40;0.70;;;15.40;99.90;;;;;;4995890;28;20467;-74
2022/07/29 03:48:19;;;;;;;3.20;0.82;;;15.40;99.90;;;;;;4996565;28;20053;-74
2022/07/29 03:50:45;;;;;;;1.42;0.80;;;15.40;99.90;;;;;;4996786;28;20390;-75
2022/07/29 03:53:12;;;;;;;1.70;0.60;;;15.40;99.90;;;;;;4978824;28;20046;-74
2022/07/29 03:55:42;;;;;;;1.65;0.70;;;15.40;99.90;;;;;;4963485;28;20109;-74
2022/07/29 03:58:10;;;;;;;2.33;0.68;;;15.40;99.90;;;;;;4996193;28;20105;-74
2022/07/29 04:00:37;;;;;;;1.90;0.70;;;15.30;99.90;;;;;;4996288;28;20082;-74
2022/07/29 04:03:04;;;;;;;3.67;0.75;;;15.40;99.90;;;;;;4995154;28;20063;-75
2022/07/29 04:05:30;;;;;;;1.33;0.70;;;15.40;99.90;;;;;;4995972;28;20494;-74
2022/07/29 04:07:56;;;;;;;1.65;0.68;;;15.30;99.90;;;;;;4963121;28;20061;-74
2022/07/29 04:10:22;;;;;;;2.38;0.60;;;15.30;99.90;;;;;;4995835;28;20473;-74
2022/07/29 04:12:49;;;;;;;2.00;0.70;;;15.30;99.90;;;;;;4995753;28;20149;-74
2022/07/29 04:15:15;;;;;;;2.08;0.77;;;15.30;99.90;;;;;;4996083;28;20054;-73
2022/07/29 04:17:40;;;;;;;3.70;0.80;;;15.30;99.90;;;;;;4995592;28;20485;-74
2022/07/29 04:20:07;;;;;;;2.38;0.88;;;15.30;99.90;;;;;;4995042;28;20059;-74
2022/07/29 04:22:32;;;;;;;3.08;0.80;;;15.30;99.90;;;;;;4995907;28;20050;-74
2022/07/29 04:24:59;;;;;;;1.60;0.70;;;15.30;99.90;;;;;;4995641;28;20053;-74
2022/07/29 04:27:25;;;;;;;1.95;0.93;;;15.30;99.90;;;;;;4994666;28;20046;-74
2022/07/29 04:29:51;;;;;;;2.72;0.73;;;15.30;99.90;;;;;;4994621;28;20050;-74
2022/07/29 04:32:16;;;;;;;1.42;0.60;;;15.30;99.90;;;;;;4994858;28;20054;-74
2022/07/29 04:34:42;;;;;;;2.47;0.60;;;15.30;99.90;;;;;;4994942;28;20137;-74
2022/07/29 04:37:08;;;;;;;1.30;0.70;;;15.30;99.90;;;;;;4978599;28;20046;-74
2022/07/29 04:39:33;;;;;;;1.45;0.70;;;15.40;99.90;;;;;;4979067;28;20042;-75
2022/07/29 04:41:59;;;;;;;3.10;0.70;;;15.40;99.90;;;;;;4995474;28;20046;-74
2022/07/29 04:44:25;;;;;;;2.95;0.88;;;15.40;99.90;;;;;;4979890;28;20060;-74
2022/07/29 04:46:51;;;;;;;2.67;0.68;;;15.40;99.90;;;;;;4979363;28;20046;-74
2022/07/29 04:49:16;;;;;;;3.00;0.70;;;15.40;99.90;;;;;;4994232;28;20056;-74
2022/07/29 04:51:42;;;;;;;2.42;0.75;;;15.40;99.90;;;;;;4993141;28;20049;-74
2022/07/29 04:54:08;;;;;;;3.08;1.00;;;15.40;99.90;;;;;;4994300;28;20042;-74
2022/07/29 04:56:34;;;;;;;1.15;0.60;;;15.40;99.90;;;;;;4996005;28;20451;-74
2022/07/29 04:58:59;;;;;;;1.20;0.68;;;15.40;99.90;;;;;;4994104;28;20419;-73
2022/07/29 05:01:25;;;;;;;2.80;0.70;;;15.40;99.90;;;;;;4994438;28;20046;-73
2022/07/29 05:03:51;;;;;;;2.03;0.70;;;15.40;99.90;;;;;;4993947;28;20479;-73
2022/07/29 05:06:16;;;;;;;2.17;0.80;;;15.40;99.90;;;;;;4995554;28;20069;-73
2022/07/29 05:08:42;;;;;;;3.50;0.70;;;15.40;99.90;;;;;;4994921;28;20054;-73
2022/07/29 05:11:08;;;;;;;2.38;0.80;;;15.40;99.90;;;;;;4962078;28;20054;-73
2022/07/29 05:13:33;;;;;;;1.75;0.70;;;15.40;99.90;;;;;;4977562;28;20422;-73
2022/07/29 05:15:59;;;;;;;1.73;0.70;;;15.40;99.90;;;;;;4994586;28;20058;-73
2022/07/29 05:18:25;;;;;;;0.80;0.63;;;15.50;99.90;;;;;;4994215;28;20061;-72
2022/07/29 05:20:51;;;;;;;2.65;0.80;;;15.40;99.90;;;;;;4993811;28;20038;-72
2022/07/29 05:23:17;;;;;;;3.17;0.70;;;15.40;99.90;;;;;;4994970;28;20474;-72
2022/07/29 05:25:43;;;;;;;2.95;0.70;;;15.50;99.90;;;;;;4994724;28;20050;-73
2022/07/29 05:28:08;;;;;;;2.53;0.80;;;15.50;99.90;;;;;;4994962;28;20050;-73
2022/07/29 05:30:34;;;;;;;2.88;0.80;;;15.50;99.90;;;;;;4993719;28;20052;-73
2022/07/29 05:33:00;;;;;;;1.83;0.68;;;15.50;99.90;;;;;;4993377;28;20073;-73
2022/07/29 05:35:25;;;;;;;1.40;1.00;;;15.50;99.90;;;;;;4993648;28;20053;-73
2022/07/29 05:37:52;;;;;;;3.55;0.65;;;15.50;99.90;;;;;;4993626;28;20042;-73
2022/07/29 05:40:17;;;;;;;1.67;1.08;;;15.50;99.90;;;;;;4994425;28;20069;-72
2022/07/29 05:42:43;;;;;;;2.47;0.80;;;15.60;99.90;;;;;;4994803;28;20046;-73
2022/07/29 05:45:09;;;;;;;1.88;0.90;;;15.60;99.90;;;;;;4995026;28;20499;-74
2022/07/29 05:47:35;;;;;;;3.50;0.90;;;15.60;99.90;;;;;;4994437;28;20103;-73
2022/07/29 05:50:01;;;;;;;3.58;1.00;;;15.60;99.90;;;;;;4993363;28;20043;-73
2022/07/29 05:52:26;;;;;;;1.63;0.88;;;15.70;99.90;;;;;;4993238;28;20058;-73
2022/07/29 05:54:52;;;;;;;1.73;0.73;;;15.70;99.90;;;;;;4993371;28;20129;-73
2022/07/29 05:57:21;;;;;;;1.10;0.80;;;15.70;99.90;;;;;;4994345;28;20046;-73
2022/07/29 05:59:47;;;;;;;2.58;0.82;;;15.70;99.90;;;;;;4993256;28;20093;-72
2022/07/29 06:02:14;;;;;;;3.05;1.02;;;15.70;99.90;;;;;;4992897;28;20042;-73
2022/07/29 06:04:39;;;;;;;2.60;0.85;;;15.70;99.90;;;;;;4993951;28;20069;-73
2022/07/29 06:07:05;;;;;;;3.13;0.80;;;15.70;99.90;;;;;;4994631;28;20046;-74
2022/07/29 06:09:33;;;;;;;1.92;0.90;;;15.80;99.90;;;;;;4977277;28;20140;-72
2022/07/29 06:11:58;;;;;;;2.85;0.70;;;15.80;99.90;;;;;;4993084;28;20038;-72
2022/07/29 06:14:26;;;;;;;1.48;0.88;;;15.80;99.90;;;;;;4977027;28;20057;-73
2022/07/29 06:16:52;;;;;;;4.10;0.90;;;15.80;99.90;;;;;;4994121;28;20057;-74
2022/07/29 06:19:18;;;;;;;2.65;0.85;;;16.10;99.90;;;;;;4994912;28;20073;-74
2022/07/29 06:21:45;;;;;;;3.08;0.80;;;15.80;99.90;;;;;;4976765;28;20467;-74
2022/07/29 06:24:12;;;;;;;3.28;1.00;;;15.80;99.90;;;;;;4994092;28;20046;-74
2022/07/29 06:26:39;;;;;;;1.55;0.98;;;15.90;99.90;;;;;;4993458;28;20046;-74
2022/07/29 06:29:05;;;;;;;2.00;0.80;;;15.90;99.90;;;;;;4977510;28;20058;-75
2022/07/29 06:31:31;;;;;;;5.68;1.35;;;15.90;99.90;;;;;;4993945;28;20104;-73
2022/07/29 06:33:56;;;;;;;3.92;1.00;;;15.90;99.90;;;;;;4993790;28;20050;-73
2022/07/29 06:36:22;;;;;;;2.22;0.95;;;15.90;99.90;;;;;;4976965;28;20185;-73
2022/07/29 06:38:48;;;;;;;2.13;0.77;;;16.00;99.90;;;;;;4993343;28;20123;-73
2022/07/29 06:41:15;;;;;;;3.42;0.80;;;16.00;99.90;;;;;;4977646;28;20053;-73
2022/07/29 06:43:43;;;;;;;3.05;1.02;;;16.00;99.90;;;;;;4993890;28;20125;-73
2022/07/29 06:46:14;;;;;;;5.63;1.02;;;16.00;99.90;;;;;;4994394;28;20047;-73
2022/07/29 06:48:42;;;;;;;3.38;0.90;;;16.10;99.90;;;;;;4992986;28;20054;-73
2022/07/29 06:51:08;;;;;;;1.77;1.00;;;16.10;99.90;;;;;;4992834;28;20046;-74
2022/07/29 06:53:35;;;;;;;2.45;0.80;;;16.10;99.90;;;;;;4994285;28;20046;-74
2022/07/29 06:56:02;;;;;;;5.10;1.20;;;16.10;99.90;;;;;;4977493;28;20367;-74
2022/07/29 06:58:28;;;;;;;3.60;1.00;;;16.10;99.90;;;;;;4993795;28;20053;-74
2022/07/29 07:00:56;;;;;;;3.20;1.05;;;16.10;99.90;;;;;;4993833;28;20442;-74
2022/07/29 07:03:22;;;;;;;4.78;0.90;;;16.20;99.90;;;;;;4992713;28;20089;-75
2022/07/29 07:05:48;;;;;;;3.00;0.90;;;16.20;99.90;;;;;;4992419;28;20088;-74
2022/07/29 07:08:15;;;;;;;2.80;0.90;;;16.20;99.90;;;;;;4993647;28;20479;-74
2022/07/29 07:10:42;;;;;;;3.25;0.90;;;16.30;99.90;;;;;;4992607;28;20050;-75
2022/07/29 07:13:08;;;;;;;4.00;0.95;;;16.30;99.90;;;;;;4993267;28;20046;-75
2022/07/29 07:15:36;;;;;;;3.45;1.00;;;16.30;99.90;;;;;;4995910;28;20490;-75
2022/07/29 07:18:02;;;;;;;3.25;1.00;;;16.30;99.90;;;;;;4997132;28;20050;-75
2022/07/29 07:20:28;;;;;;;3.35;1.08;;;16.30;99.90;;;;;;4997075;28;20062;-75
2022/07/29 07:22:54;;;;;;;2.45;1.05;;;16.30;99.90;;;;;;4996511;28;20398;-73
2022/07/29 07:25:20;;;;;;;2.47;1.00;;;16.40;99.90;;;;;;4979828;28;20046;-74
2022/07/29 07:27:46;;;;;;;1.58;0.90;;;16.40;99.90;;;;;;4997829;28;20046;-74
2022/07/29 07:30:12;;;;;;;3.15;0.93;;;16.40;99.90;;;;;;4995846;28;20376;-74
2022/07/29 07:32:38;;;;;;;2.00;0.90;;;16.50;99.90;;;;;;4996961;28;20046;-72
2022/07/29 07:35:06;;;;;;;2.55;1.10;;;16.50;99.90;;;;;;4996676;28;20455;-71
2022/07/29 07:37:32;;;;;;;2.58;1.00;;;16.50;99.90;;;;;;4995844;28;20054;-72
2022/07/29 07:39:58;;;;;;;4.30;1.00;;;16.70;99.90;;;;;;4996701;28;20039;-72
2022/07/29 07:42:24;;;;;;;7.03;1.10;;;16.60;99.90;;;;;;4995848;28;20431;-72
2022/07/29 07:44:50;;;;;;;2.38;1.00;;;16.60;99.90;;;;;;4979633;28;20050;-72
2022/07/29 07:47:19;;;;;;;5.03;1.02;;;16.70;99.90;;;;;;4996731;28;20082;-72
2022/07/29 07:49:52;;;;;;;5.00;1.25;;;16.70;99.90;;;;;;4995445;28;20490;-72
2022/07/29 07:52:20;;;;;;;2.38;1.00;;;16.80;99.90;;;;;;4997456;28;20046;-73
2022/07/29 07:54:46;;;;;;;6.05;0.95;;;16.80;99.90;;;;;;4995869;28;20487;-73
2022/07/29 07:57:12;;;;;;;2.00;0.80;;;16.90;99.90;;;;;;4995850;28;20088;-73
2022/07/29 07:59:38;;;;;;;3.75;1.10;;;16.90;99.90;;;;;;4980125;28;20104;-73
2022/07/29 08:02:04;;;;;;;1.98;0.90;;;16.90;99.90;;;;;;4996017;28;20498;-73
2022/07/29 08:04:30;;;;;;;2.55;1.10;;;17.00;99.90;;;;;;4995355;28;20049;-73
2022/07/29 08:06:57;;;;;;;2.00;0.80;;;17.00;99.90;;;;;;4994892;28;20161;-73
2022/07/29 08:09:25;;;;;;;3.78;0.90;;;17.00;99.90;;;;;;4995916;28;20542;-73
2022/07/29 08:11:51;;;;;;;1.70;0.88;;;17.00;99.90;;;;;;4995180;28;20046;-74
2022/07/29 08:14:17;;;;;;;2.47;0.80;;;17.00;99.90;;;;;;4995085;28;20050;-73
2022/07/29 08:16:43;;;;;;;2.65;0.80;;;17.10;99.90;;;;;;4996185;28;20053;-73
2022/07/29 08:19:09;;;;;;;3.08;1.10;;;17.10;99.90;;;;;;4995183;28;20046;-74
2022/07/29 08:21:35;;;;;;;2.53;1.10;;;17.20;99.90;;;;;;4995903;28;20407;-73
2022/07/29 08:26:53;;;;;;;2.40;0.90;;;17.20;99.90;;;;;;4959984;28;20434;-74
2022/07/29 08:29:18;;;;;;;2.92;1.00;;;17.30;99.90;;;;;;4963606;28;20053;-73
2022/07/29 08:31:45;;;;;;;2.17;1.00;;;17.30;99.90;;;;;;4996155;28;20133;-74
2022/07/29 08:34:11;;;;;;;3.05;0.93;;;17.30;99.90;;;;;;4994894;28;20061;-73
2022/07/29 08:36:38;;;;;;;3.17;1.33;;;17.40;99.90;;;;;;4978925;28;20141;-75
2022/07/29 08:39:04;;;;;;;4.60;1.25;;;17.50;99.90;;;;;;4998776;28;20450;-74
2022/07/29 08:41:30;;;;;;;2.22;1.10;;;17.50;99.90;;;;;;4995842;28;20148;-74
2022/07/29 08:43:55;;;;;;;4.13;1.10;;;17.50;99.90;;;;;;4995594;28;20474;-74
2022/07/29 08:46:22;;;;;;;1.95;1.10;;;17.60;99.90;;;;;;4977978;28;20507;-75
2022/07/29 08:48:48;;;;;;;2.22;0.93;;;17.60;99.90;;;;;;4994600;28;20372;-74
2022/07/29 08:51:16;;;;;;;2.33;1.00;;;17.60;99.90;;;;;;4994825;28;20082;-74
2022/07/29 08:53:45;;;;;;;2.30;1.00;;;17.60;99.90;;;;;;4994155;28;20042;-73
2022/07/29 08:56:17;;;;;;;2.33;1.17;;;17.60;99.90;;;;;;4994272;28;20054;-74
2022/07/29 08:58:42;;;;;;;4.28;1.00;;;17.70;99.90;;;;;;4994610;28;20046;-73
2022/07/29 09:01:10;;;;;;;2.53;1.08;;;17.70;99.90;;;;;;4977985;28;20372;-74
2022/07/29 09:03:37;;;;;;;4.55;1.27;;;17.70;99.90;;;;;;4995228;28;20046;-75
2022/07/29 09:06:03;;;;;;;1.52;1.00;;;17.80;99.90;;;;;;4977619;28;20137;-75
2022/07/29 09:08:31;;;;;;;3.17;1.17;;;17.80;99.90;;;;;;4961926;28;20050;-74
2022/07/29 09:10:59;;;;;;;1.33;1.00;;;17.80;99.90;;;;;;4994021;28;20422;-75
2022/07/29 09:13:28;;;;;;;4.45;1.15;;;17.80;99.90;;;;;;4995161;28;20050;-75
2022/07/29 09:15:54;;;;;;;4.55;1.23;;;17.90;99.90;;;;;;4994600;28;20399;-75
2022/07/29 09:18:42;;;;;;;2.95;1.00;;;17.90;99.90;;;;;;4994086;28;20050;-74
2022/07/29 09:24:07;;;;;;;3.63;1.15;;;18.00;99.90;;;;;;4980769;28;20094;-75
2022/07/29 09:26:44;;;;;;;4.00;1.33;;;18.00;99.90;;;;;;4977723;28;20050;-77
2022/07/29 09:29:19;;;;;;;1.95;1.08;;;18.00;99.90;;;;;;4978067;28;20132;-75
2022/07/29 09:31:46;;;;;;;3.83;1.08;;;18.00;99.90;;;;;;4994548;28;20054;-75
2022/07/29 09:34:15;;;;;;;3.53;1.25;;;18.00;99.90;;;;;;4978322;28;20054;-76
2022/07/29 09:36:50;;;;;;;3.95;1.40;;;18.00;99.90;;;;;;4992834;28;20050;-75
2022/07/29 09:39:28;;;;;;;2.45;1.25;;;18.00;99.90;;;;;;4994417;28;20043;-75
2022/07/29 09:41:55;;;;;;;4.75;1.13;;;18.00;99.90;;;;;;4994447;28;20070;-75
2022/07/29 09:44:22;;;;;;;3.45;1.15;;;18.10;99.90;;;;;;4993507;28;20169;-75
2022/07/29 09:47:05;;;;;;;2.33;1.08;;;18.10;99.90;;;;;;4993285;28;20042;-75
2022/07/29 09:49:36;;;;;;;2.92;1.20;;;18.10;99.90;;;;;;4977620;28;20058;-75
2022/07/29 09:52:06;;;;;;;3.47;1.42;;;18.20;99.90;;;;;;4978029;28;20085;-75
2022/07/29 09:54:38;;;;;;;3.13;1.17;;;18.20;99.90;;;;;;4993696;28;20050;-75
2022/07/29 09:57:06;;;;;;;4.78;1.20;;;18.20;99.90;;;;;;4993211;28;20046;-74
2022/07/29 09:59:32;;;;;;;2.88;1.20;;;18.30;99.90;;;;;;4994323;28;20399;-75
2022/07/29 10:01:59;;;;;;;3.25;1.45;;;18.40;99.90;;;;;;4993300;28;20046;-75
2022/07/29 10:04:42;;;;;;;4.13;1.70;;;18.40;99.90;;;;;;4993844;28;20046;-76
2022/07/29 10:07:09;;;;;;;3.22;1.40;;;18.50;99.90;;;;;;4992077;28;20054;-75
2022/07/29 10:09:35;;;;;;;1.80;1.20;;;18.50;99.90;;;;;;4993212;28;20516;-76
2022/07/29 10:12:15;;;;;;;3.20;1.00;;;18.60;99.90;;;;;;4993308;28;20125;-75
2022/07/29 10:14:42;;;;;;;4.93;1.42;;;18.70;99.90;;;;;;4993837;28;20038;-74
2022/07/29 10:17:10;;;;;;;4.65;1.38;;;18.80;99.90;;;;;;4992444;28;20054;-76
2022/07/29 10:19:37;;;;;;;3.08;1.25;;;18.80;99.90;;;;;;4992532;28;20109;-75
2022/07/29 10:22:08;;;;;;;3.85;1.40;;;18.90;99.90;;;;;;4992636;28;20092;-75
2022/07/29 10:24:35;;;;;;;4.03;1.35;;;18.90;99.90;;;;;;4993321;28;20058;-76
2022/07/29 10:27:03;;;;;;;3.38;1.10;;;19.00;99.90;;;;;;4976014;28;20050;-74
2022/07/29 10:29:31;;;;;;;4.03;1.55;;;19.00;99.90;;;;;;4993250;28;20085;-76
2022/07/29 10:32:14;;;;;;;3.38;1.25;;;19.10;99.90;;;;;;4960096;28;20494;-75
2022/07/29 10:35:08;;;;;;;3.47;1.30;;;19.10;99.90;;;;;;4993419;28;20058;-76
2022/07/29 10:37:43;;;;;;;5.88;1.20;;;19.10;99.90;;;;;;4976776;28;20042;-77
2022/07/29 10:43:48;;;;;;;6.13;1.27;;;19.30;99.90;;;;;;4952029;29;20056;-77
2022/07/29 10:46:14;;;;;;;1.83;1.02;;;19.20;99.90;;;;;;4937169;29;20392;-76
2022/07/29 10:49:19;;;;;;;2.60;1.30;;;19.30;99.90;;;;;;4957964;28;20062;-75
2022/07/29 10:51:51;;;;;;;4.75;1.30;;;19.30;99.90;;;;;;4996795;28;20058;-76
2022/07/29 10:54:39;;;;;;;2.25;0.90;;;19.40;99.90;;;;;;4996489;28;20358;-76
2022/07/29 10:57:15;;;;;;;3.95;1.05;;;19.40;99.90;;;;;;5012095;28;20059;-76
2022/07/29 10:59:43;;;;;;;3.67;1.30;;;19.50;99.90;;;;;;4995549;28;20053;-76
2022/07/29 11:02:36;;;;;;;7.40;1.40;;;19.60;99.90;;;;;;4996810;28;20042;-76
2022/07/29 11:05:19;;;;;;;4.05;1.25;;;19.70;99.90;;;;;;4996923;28;20050;-76
2022/07/29 11:08:23;;;;;;;3.20;1.20;;;19.70;99.90;;;;;;4996221;28;20136;-76
2022/07/29 11:10:53;;;;;;;5.03;1.60;;;19.80;99.90;;;;;;4966355;28;20062;-76
2022/07/29 11:13:46;;;;;;;3.70;1.17;;;19.90;99.90;;;;;;4995948;28;20420;-77
2022/07/29 11:16:12;;;;;;;2.70;1.00;;;19.90;99.90;;;;;;4996432;28;20101;-77
2022/07/29 11:19:27;;;;;;;3.05;1.17;;;20.00;99.90;;;;;;4996285;28;20115;-76
2022/07/29 11:21:55;;;;;;;3.00;1.20;;;20.00;99.90;;;;;;4981146;28;20124;-76
2022/07/29 11:24:27;;;;;;;2.60;1.10;;;20.10;99.90;;;;;;4979191;28;20054;-77
2022/07/29 11:27:13;;;;;;;2.03;1.30;;;20.10;99.90;;;;;;4995815;28;20090;-77
2022/07/29 11:29:49;;;;;;;2.45;1.20;;;20.20;99.90;;;;;;4999299;28;20290;-75
2022/07/29 11:32:19;;;;;;;3.40;1.23;;;20.20;99.90;;;;;;4994714;28;20078;-77
2022/07/29 11:34:46;;;;;;;2.47;1.10;;;20.20;99.90;;;;;;4994925;28;20046;-77
2022/07/29 11:37:12;;;;;;;5.00;1.20;;;20.20;99.90;;;;;;4995162;28;20043;-77
2022/07/29 11:39:56;;;;;;;2.70;1.48;;;20.30;99.90;;;;;;4996182;28;20053;-76
2022/07/29 11:42:24;;;;;;;2.70;1.00;;;20.30;99.90;;;;;;4995488;28;20050;-77
2022/07/29 11:44:56;;;;;;;3.17;1.30;;;20.30;99.90;;;;;;4995789;28;20046;-77
2022/07/29 11:47:23;;;;;;;3.47;1.40;;;20.40;99.90;;;;;;4995523;28;20371;-76
2022/07/29 11:49:50;;;;;;;3.90;1.25;;;20.40;99.90;;;;;;4995603;28;20116;-77
2022/07/29 11:52:17;;;;;;;3.53;1.10;;;20.40;99.90;;;;;;4996170;28;20205;-77
2022/07/29 11:54:43;;;;;;;5.18;1.55;;;20.40;99.90;;;;;;4995200;28;20050;-77
2022/07/29 11:57:09;;;;;;;4.35;1.15;;;20.40;99.90;;;;;;4994407;28;20139;-77
2022/07/29 11:59:43;;;;;;;3.33;1.13;;;20.40;99.90;;;;;;4993274;28;20054;-77
2022/07/29 12:02:09;;;;;;;5.68;1.33;;;20.40;99.90;;;;;;4994186;28;20038;-77
2022/07/29 12:05:02;;;;;;;2.70;1.20;;;20.50;99.90;;;;;;4995836;28;20050;-77
2022/07/29 12:07:32;;;;;;;5.27;1.83;;;20.50;99.90;;;;;;4992047;28;20378;-77
2022/07/29 12:10:01;;;;;;;2.80;1.30;;;20.60;99.90;;;;;;4995668;28;20285;-77
2022/07/29 12:12:27;;;;;;;3.17;1.20;;;20.60;99.90;;;;;;4994195;28;20069;-77
2022/07/29 12:14:54;;;;;;;2.63;1.30;;;20.60;99.90;;;;;;4978145;28;20066;-77
2022/07/29 12:17:32;;;;;;;5.63;1.20;;;20.70;99.90;;;;;;4993975;28;20065;-77
2022/07/29 12:20:03;;;;;;;3.50;1.27;;;20.70;99.90;;;;;;4993990;28;20500;-78
2022/07/29 12:22:40;;;;;;;4.93;1.40;;;20.70;99.90;;;;;;4993909;28;20125;-77
2022/07/29 12:25:11;;;;;;;8.45;2.00;;;20.80;99.90;;;;;;4994720;28;20053;-77
2022/07/29 12:27:38;;;;;;;3.08;1.30;;;20.80;99.90;;;;;;4993548;28;20058;-77
2022/07/29 12:30:09;;;;;;;2.15;1.20;;;20.90;99.90;;;;;;4994760;28;20046;-77
2022/07/29 12:32:37;;;;;;;2.28;1.30;;;20.90;99.90;;;;;;4993715;28;20113;-76
2022/07/29 12:35:05;;;;;;;3.40;1.20;;;21.00;99.90;;;;;;4994359;28;20054;-77
2022/07/29 12:37:36;;;;;;;4.00;1.40;;;21.10;99.90;;;;;;4993586;28;20069;-76
2022/07/29 12:40:07;;;;;;;5.45;1.20;;;21.20;99.90;;;;;;4993751;28;20050;-76
2022/07/29 12:42:33;;;;;;;2.15;1.20;;;21.20;99.90;;;;;;4993364;28;20050;-77
2022/07/29 12:45:02;;;;;;;3.53;1.25;;;21.30;99.90;;;;;;4977356;28;20054;-77
2022/07/29 12:47:28;;;;;;;3.53;1.30;;;21.30;99.90;;;;;;4994192;28;20050;-76
2022/07/29 12:50:17;;;;;;;5.03;1.58;;;21.30;99.90;;;;;;4994366;28;20042;-76
2022/07/29 12:52:44;;;;;;;4.88;1.10;;;21.40;99.90;;;;;;4993272;28;20608;-76
2022/07/29 12:55:11;;;;;;;3.40;1.10;;;21.40;99.90;;;;;;4993298;28;20061;-76
2022/07/29 12:57:51;;;;;;;3.47;1.20;;;21.40;99.90;;;;;;4993385;28;20216;-76
2022/07/29 13:00:24;;;;;;;6.97;1.50;;;21.80;99.90;;;;;;4994561;28;20054;-77
2022/07/29 13:02:59;;;;;;;3.75;1.35;;;21.40;99.90;;;;;;4994285;28;20089;-76
2022/07/29 13:05:40;;;;;;;2.50;1.33;;;21.30;99.90;;;;;;4992907;28;20486;-78
2022/07/29 13:08:14;;;;;;;5.43;2.05;;;21.40;99.90;;;;;;4993533;28;20054;-76
2022/07/29 13:10:40;;;;;;;5.60;1.50;;;21.30;99.90;;;;;;4994067;28;20054;-75
2022/07/29 13:13:10;;;;;;;5.30;1.70;;;21.20;99.90;;;;;;4993422;28;20498;-75